Time;durP1;ratioP1;P1;durP2;ratioP2;P2;SDS_P1;SDS_P2;PMS_P1;PMS_P2;Temp;Humidity;BMP_temperature;BMP_pressure;BME280_temperature;BME280_humidity;BME280_pressure;Samples;Min_cycle;Max_cycle;Signal;HPM_P1;HPM_P2
2023/08/08 00:00:45;;;;;;;;;;;;;;;23.22;46.11;99256.78;3157137;28;19928;-75
2023/08/08 00:02:16;;;;;;;;;;;;;;;23.21;46.25;99241.84;3157163;28;19924;-75
2023/08/08 00:03:47;;;;;;;;;;;;;;;23.22;45.97;99251.47;3153471;28;19920;-74
2023/08/08 00:05:18;;;;;;;;;;;;;;;23.22;45.97;99243.50;3149153;28;19941;-75
2023/08/08 00:06:50;;;;;;;;;;;;;;;23.22;45.78;99254.97;3157152;28;19919;-74
2023/08/08 00:08:20;;;;;;;;;;;;;;;23.24;46.02;99249.50;3157246;28;19985;-75
2023/08/08 00:09:52;;;;;;;;;;;;;;;23.24;46.22;99245.00;3157387;28;20590;-75
2023/08/08 00:11:23;;;;;;;;;;;;;;;23.25;45.93;99244.03;3157207;28;19927;-74
2023/08/08 00:12:55;;;;;;;;;;;;;;;23.25;46.02;99259.97;3152316;28;19927;-73
2023/08/08 00:14:26;;;;;;;;;;;;;;;23.23;46.17;99246.00;3157279;28;19920;-75
2023/08/08 00:15:57;;;;;;;;;;;;;;;23.25;46.21;99245.84;3157467;28;20020;-75
2023/08/08 00:17:28;;;;;;;;;;;;;;;23.24;46.22;99245.00;3146022;28;19920;-77
2023/08/08 00:18:59;;;;;;;;;;;;;;;23.21;46.18;99248.00;3149364;28;19921;-77
2023/08/08 00:20:30;;;;;;;;;;;;;;;23.23;46.35;99248.66;3151591;28;19948;-79
2023/08/08 00:22:01;;;;;;;;;;;;;;;23.21;46.47;99250.66;3153415;28;19987;-77
2023/08/08 00:23:33;;;;;;;;;;;;;;;23.20;46.51;99254.31;3152804;28;19973;-80
2023/08/08 00:25:05;;;;;;;;;;;;;;;23.20;46.31;99254.31;3157320;28;19928;-78
2023/08/08 00:26:36;;;;;;;;;;;;;;;23.25;46.22;99264.44;3157136;28;19924;-77
2023/08/08 00:28:08;;;;;;;;;;;;;;;23.24;46.20;99266.25;3157089;28;19942;-76
2023/08/08 00:29:38;;;;;;;;;;;;;;;23.21;46.46;99263.94;3156942;28;20285;-74
2023/08/08 00:31:10;;;;;;;;;;;;;;;23.19;46.75;99267.75;3157145;28;19950;-76
2023/08/08 00:32:41;;;;;;;;;;;;;;;23.15;46.96;99262.75;3157118;28;19931;-76
2023/08/08 00:34:12;;;;;;;;;;;;;;;23.12;47.10;99265.72;3151799;28;20000;-73
2023/08/08 00:35:43;;;;;;;;;;;;;;;23.11;47.15;99258.78;3156788;28;20400;-75
2023/08/08 00:37:14;;;;;;;;;;;;;;;23.13;47.24;99261.25;3155227;28;19924;-76
2023/08/08 00:38:46;;;;;;;;;;;;;;;23.13;47.21;99266.56;3159426;28;20385;-75
2023/08/08 00:40:16;;;;;;;;;;;;;;;23.12;47.42;99268.38;3159039;28;19927;-76
2023/08/08 00:41:49;;;;;;;;;;;;;;;23.11;47.48;99265.91;3159257;28;19924;-76
2023/08/08 00:43:20;;;;;;;;;;;;;;;23.08;47.51;99261.75;3155493;28;19931;-75
2023/08/08 00:44:51;;;;;;;;;;;;;;;23.08;47.63;99268.91;3156177;28;19920;-76
2023/08/08 00:46:24;;;;;;;;;;;;;;;23.07;47.64;99264.56;3146206;28;20643;-77
2023/08/08 00:47:55;;;;;;;;;;;;;;;23.05;47.81;99259.44;3154689;28;20106;-76
2023/08/08 00:49:27;;;;;;;;;;;;;;;23.03;47.92;99263.22;3157226;28;19924;-76
2023/08/08 00:50:58;;;;;;;;;;;;;;;23.04;48.03;99259.56;3159597;28;19920;-77
2023/08/08 00:52:30;;;;;;;;;;;;;;;23.03;48.08;99257.91;3159117;28;19926;-75
2023/08/08 00:54:01;;;;;;;;;;;;;;;23.00;48.53;99260.91;3155216;28;19932;-77
2023/08/08 00:55:32;;;;;;;;;;;;;;;22.98;48.62;99262.88;3151448;28;19920;-77
2023/08/08 00:57:05;;;;;;;;;;;;;;;22.96;48.39;99262.22;3158973;28;19930;-77
2023/08/08 00:58:36;;;;;;;;;;;;;;;22.95;48.84;99261.38;3159265;28;19927;-77
2023/08/08 01:00:09;;;;;;;;;;;;;;;22.93;49.00;99266.00;3159155;28;19920;-75
2023/08/08 01:01:40;;;;;;;;;;;;;;;22.90;48.90;99264.50;3158766;28;19924;-75
2023/08/08 01:03:11;;;;;;;;;;;;;;;22.89;49.20;99257.53;3159362;28;20421;-77
2023/08/08 01:04:43;;;;;;;;;;;;;;;22.90;49.35;99258.38;3147741;28;19927;-76
2023/08/08 01:06:17;;;;;;;;;;;;;;;22.89;49.44;99278.78;3155748;28;20409;-75
2023/08/08 01:07:52;;;;;;;;;;;;;;;22.87;49.23;99270.13;3158141;28;19974;-78
2023/08/08 01:09:25;;;;;;;;;;;;;;;22.87;49.42;99266.66;3151698;28;19942;-76
2023/08/08 01:10:56;;;;;;;;;;;;;;;22.85;49.38;99269.44;3157874;28;19931;-74
2023/08/08 01:12:29;;;;;;;;;;;;;;;22.82;49.72;99271.59;3158468;28;19920;-77
2023/08/08 01:14:01;;;;;;;;;;;;;;;22.82;49.73;99269.78;3156381;28;19924;-77
2023/08/08 01:15:35;;;;;;;;;;;;;;;22.82;49.69;99269.78;3158940;28;19920;-77
2023/08/08 01:17:07;;;;;;;;;;;;;;;22.83;49.52;99284.69;3153526;28;20408;-78
2023/08/08 01:18:38;;;;;;;;;;;;;;;22.82;49.69;99283.06;3152024;28;19995;-78
2023/08/08 01:20:12;;;;;;;;;;;;;;;22.80;50.02;99285.03;3153015;28;19943;-76
2023/08/08 01:21:43;;;;;;;;;;;;;;;22.77;50.01;99280.03;3158879;28;20332;-77
2023/08/08 01:23:17;;;;;;;;;;;;;;;22.77;50.13;99292.47;3158932;28;20053;-72
2023/08/08 01:24:50;;;;;;;;;;;;;;;22.76;50.04;99291.66;3158167;28;19920;-72
2023/08/08 01:26:21;;;;;;;;;;;;;;;22.69;50.18;99296.78;3158855;28;20022;-73
2023/08/08 01:27:52;;;;;;;;;;;;;;;;;;3158525;28;20488;-72
2023/08/08 01:29:24;;;;;;;;;;;;;;;22.64;49.99;99288.44;3158816;28;19927;-72
2023/08/08 01:30:54;;;;;;;;;;;;;;;22.61;49.97;99299.38;3158994;28;20315;-75
2023/08/08 01:32:26;;;;;;;;;;;;;;;22.61;50.06;99306.53;3158579;28;19920;-75
2023/08/08 01:33:56;;;;;;;;;;;;;;;22.58;49.96;99301.53;3153681;28;19920;-74
2023/08/08 01:35:31;;;;;;;;;;;;;;;22.51;50.07;99300.47;3149726;28;19920;-77
2023/08/08 01:37:07;;;;;;;;;;;;;;;22.48;49.92;99305.13;3158952;28;19920;-77
2023/08/08 01:38:40;;;;;;;;;;;;;;;22.44;50.11;99301.13;3158922;28;19986;-78
2023/08/08 01:40:16;;;;;;;;;;;;;;;22.43;50.18;99309.25;3158298;28;20390;-77
2023/08/08 01:41:48;;;;;;;;;;;;;;;22.41;50.16;99305.91;3158947;28;19946;-76
2023/08/08 01:43:21;;;;;;;;;;;;;;;22.39;49.98;99303.44;3154448;28;19921;-76
2023/08/08 01:44:52;;;;;;;;;;;;;;;22.39;50.03;99305.22;3156889;28;19920;-76
2023/08/08 01:46:25;;;;;;;;;;;;;;;22.37;50.11;99307.22;3145902;28;19927;-74
2023/08/08 01:47:55;;;;;;;;;;;;;;;22.33;50.08;99304.06;3155025;28;19924;-76
2023/08/08 01:49:27;;;;;;;;;;;;;;;22.34;50.04;99311.03;3157921;28;19920;-77
2023/08/08 01:50:57;;;;;;;;;;;;;;;22.34;50.11;99307.53;3154203;28;20304;-76
2023/08/08 01:52:29;;;;;;;;;;;;;;;22.32;50.40;99314.81;3157794;28;19920;-81
2023/08/08 01:53:59;;;;;;;;;;;;;;;22.30;50.41;99309.66;3158187;28;19923;-76
2023/08/08 01:55:32;;;;;;;;;;;;;;;22.31;50.33;99321.94;3158332;28;19942;-76
2023/08/08 01:57:03;;;;;;;;;;;;;;;22.30;50.46;99314.13;3157998;28;20435;-76
2023/08/08 01:58:35;;;;;;;;;;;;;;;22.29;50.30;99310.66;3158549;28;19920;-76
2023/08/08 02:00:06;;;;;;;;;;;;;;;22.29;50.21;99318.59;3158220;28;19931;-76
2023/08/08 02:01:38;;;;;;;;;;;;;;;22.28;50.40;99316.94;3158314;28;19927;-75
2023/08/08 02:03:08;;;;;;;;;;;;;;;22.24;50.67;99318.22;3158511;28;19927;-75
2023/08/08 02:04:40;;;;;;;;;;;;;;;22.21;50.53;99321.19;3150237;28;19924;-75
2023/08/08 02:06:10;;;;;;;;;;;;;;;22.17;50.65;99328.63;3145704;28;19932;-75
2023/08/08 02:07:42;;;;;;;;;;;;;;;22.11;50.87;99331.06;3156407;28;19924;-74
2023/08/08 02:09:14;;;;;;;;;;;;;;;22.08;50.78;99328.72;3153427;28;19927;-75
2023/08/08 02:10:47;;;;;;;;;;;;;;;22.01;51.13;99325.84;3154993;28;20019;-76
2023/08/08 02:12:18;;;;;;;;;;;;;;;21.96;51.26;99333.44;3157605;28;19927;-76
2023/08/08 02:13:49;;;;;;;;;;;;;;;21.93;51.32;99339.03;3155891;28;19920;-76
2023/08/08 02:15:20;;;;;;;;;;;;;;;21.88;51.46;99334.19;3158120;28;19924;-76
2023/08/08 02:16:51;;;;;;;;;;;;;;;21.90;51.40;99334.88;3158315;28;19920;-77
2023/08/08 02:18:22;;;;;;;;;;;;;;;21.87;51.56;99344.94;3157642;28;19942;-77
2023/08/08 02:19:54;;;;;;;;;;;;;;;21.86;51.63;99337.97;3154103;28;19924;-77
2023/08/08 02:21:25;;;;;;;;;;;;;;;21.85;51.53;99339.78;3158123;28;20041;-76
2023/08/08 02:22:56;;;;;;;;;;;;;;;21.85;51.59;99344.25;3158219;28;19924;-77
2023/08/08 02:24:27;;;;;;;;;;;;;;;21.82;51.71;99348.03;3157512;28;20389;-76
2023/08/08 02:25:59;;;;;;;;;;;;;;;21.80;52.06;99344.75;3158067;28;19974;-78
2023/08/08 02:27:31;;;;;;;;;;;;;;;21.78;51.87;99346.69;3158416;28;19928;-76
2023/08/08 02:29:01;;;;;;;;;;;;;;;21.74;51.94;99361.22;3158000;28;19923;-80
2023/08/08 02:30:33;;;;;;;;;;;;;;;21.69;52.17;99352.91;3157988;28;19926;-77
2023/08/08 02:32:04;;;;;;;;;;;;;;;21.65;52.30;99362.13;3157928;28;20316;-79
2023/08/08 02:33:36;;;;;;;;;;;;;;;21.59;52.48;99355.59;3156095;28;20359;-78
2023/08/08 02:35:08;;;;;;;;;;;;;;;21.58;52.42;99351.31;3158085;28;19924;-78
2023/08/08 02:36:39;;;;;;;;;;;;;;;21.56;52.39;99359.41;3157991;28;19920;-76
2023/08/08 02:38:10;;;;;;;;;;;;;;;21.56;52.58;99364.72;3157896;28;19924;-77
2023/08/08 02:39:42;;;;;;;;;;;;;;;21.56;52.25;99367.38;3158124;28;19931;-76
2023/08/08 02:41:14;;;;;;;;;;;;;;;21.52;52.59;99363.34;3158232;28;19927;-75
2023/08/08 02:42:45;;;;;;;;;;;;;;;21.49;52.74;99371.59;3158085;28;20064;-78
2023/08/08 02:44:16;;;;;;;;;;;;;;;21.46;52.79;99371.88;3150838;28;19928;-78
2023/08/08 02:45:47;;;;;;;;;;;;;;;21.43;52.73;99364.25;3152940;28;20387;-79
2023/08/08 02:47:18;;;;;;;;;;;;;;;21.42;52.94;99375.00;3145330;28;19928;-79
2023/08/08 02:48:49;;;;;;;;;;;;;;;21.31;53.26;99365.41;3155973;28;19920;-79
2023/08/08 02:50:20;;;;;;;;;;;;;;;21.33;53.50;99374.03;3158093;28;19931;-77
2023/08/08 02:51:52;;;;;;;;;;;;;;;21.28;53.50;99379.78;3157667;28;20335;-80
2023/08/08 02:53:22;;;;;;;;;;;;;;;21.27;53.69;99374.63;3158267;28;19927;-81
2023/08/08 02:54:54;;;;;;;;;;;;;;;21.31;53.19;99373.34;3157644;28;20392;-78
2023/08/08 02:56:27;;;;;;;;;;;;;;;21.30;53.40;99384.94;3157698;28;19924;-77
2023/08/08 02:57:57;;;;;;;;;;;;;;;21.27;53.52;99388.72;3157997;28;19920;-79
2023/08/08 02:59:29;;;;;;;;;;;;;;;21.25;53.92;99389.84;3157615;28;20320;-80
2023/08/08 03:00:59;;;;;;;;;;;;;;;21.20;53.93;99387.59;3157687;28;20034;-74
2023/08/08 03:02:31;;;;;;;;;;;;;;;21.18;54.26;99384.31;3153525;28;19924;-75
2023/08/08 03:04:01;;;;;;;;;;;;;;;21.14;54.21;99386.38;3147674;28;19920;-75
2023/08/08 03:05:33;;;;;;;;;;;;;;;21.14;54.38;99391.69;3145939;28;19924;-75
2023/08/08 03:07:05;;;;;;;;;;;;;;;21.14;54.41;99407.56;3151365;28;19920;-73
2023/08/08 03:08:36;;;;;;;;;;;;;;;21.05;55.03;99395.22;3157587;28;19951;-74
2023/08/08 03:10:08;;;;;;;;;;;;;;;20.97;55.35;99397.78;3151776;28;19920;-74
2023/08/08 03:11:42;;;;;;;;;;;;;;;20.95;55.52;99401.53;3157073;28;20220;-75
2023/08/08 03:13:13;;;;;;;;;;;;;;;20.89;55.93;99403.78;3157651;28;20380;-74
2023/08/08 03:14:45;;;;;;;;;;;;;;;20.84;56.05;99415.78;3157354;28;20305;-77
2023/08/08 03:16:15;;;;;;;;;;;;;;;20.84;55.91;99407.84;3157379;28;20010;-74
2023/08/08 03:17:47;;;;;;;;;;;;;;;20.84;56.14;99405.19;3153061;28;19924;-78
2023/08/08 03:19:18;;;;;;;;;;;;;;;20.83;56.22;99409.66;3149815;28;19921;-77
2023/08/08 03:20:49;;;;;;;;;;;;;;;20.81;56.46;99421.34;3157585;28;19926;-76
2023/08/08 03:22:21;;;;;;;;;;;;;;;20.77;56.86;99415.53;3156759;28;19924;-75
2023/08/08 03:23:51;;;;;;;;;;;;;;;20.71;57.25;99423.22;3157712;28;20467;-78
2023/08/08 03:25:23;;;;;;;;;;;;;;;20.70;57.22;99426.81;3157467;28;19920;-77
2023/08/08 03:26:55;;;;;;;;;;;;;;;20.70;57.16;99425.00;3157148;28;20397;-77
2023/08/08 03:28:26;;;;;;;;;;;;;;;20.67;57.52;99439.38;3157422;28;20015;-78
2023/08/08 03:29:57;;;;;;;;;;;;;;;20.66;57.50;99442.97;3157695;28;19924;-76
2023/08/08 03:31:28;;;;;;;;;;;;;;;20.61;58.12;99447.84;3157530;28;19924;-77
2023/08/08 03:32:59;;;;;;;;;;;;;;;20.56;58.52;99444.00;3152758;28;19978;-83
2023/08/08 03:34:30;;;;;;;;;;;;;;;20.53;58.53;99444.25;3151514;28;19992;-79
2023/08/08 03:36:02;;;;;;;;;;;;;;;20.52;58.37;99456.63;3157743;28;20356;-78
2023/08/08 03:37:33;;;;;;;;;;;;;;;20.53;58.43;99463.63;3157391;28;19920;-75
2023/08/08 03:39:07;;;;;;;;;;;;;;;20.50;58.46;99461.22;3157513;28;19927;-76
2023/08/08 03:40:38;;;;;;;;;;;;;;;20.49;58.82;99464.81;3157677;28;20015;-75
2023/08/08 03:42:11;;;;;;;;;;;;;;;20.45;59.04;99463.44;3157237;28;19920;-77
2023/08/08 03:43:41;;;;;;;;;;;;;;;20.44;58.84;99464.44;3150887;28;19931;-76
2023/08/08 03:45:13;;;;;;;;;;;;;;;20.46;59.15;99467.75;3157727;28;20436;-76
2023/08/08 03:46:44;;;;;;;;;;;;;;;20.44;59.33;99469.72;3144425;28;19920;-75
2023/08/08 03:48:15;;;;;;;;;;;;;;;20.40;59.97;99471.78;3156924;28;19924;-76
2023/08/08 03:49:46;;;;;;;;;;;;;;;20.33;60.05;99469.88;3155278;28;19920;-76
2023/08/08 03:51:17;;;;;;;;;;;;;;;20.38;60.06;99479.06;3157431;28;19942;-78
2023/08/08 03:52:48;;;;;;;;;;;;;;;20.40;59.97;99485.00;3157437;28;19919;-76
2023/08/08 03:54:19;;;;;;;;;;;;;;;20.42;59.79;99484.88;3156961;28;19920;-76
2023/08/08 03:55:50;;;;;;;;;;;;;;;20.43;59.95;99492.66;3157259;28;20432;-77
2023/08/08 03:57:23;;;;;;;;;;;;;;;20.43;60.02;99505.91;3156932;28;19927;-76
2023/08/08 03:58:53;;;;;;;;;;;;;;;20.42;60.14;99511.34;3157400;28;19931;-76
2023/08/08 04:00:25;;;;;;;;;;;;;;;20.41;60.06;99517.63;3156940;28;19924;-75
2023/08/08 04:01:56;;;;;;;;;;;;;;;20.41;60.30;99514.97;3153885;28;19982;-74
2023/08/08 04:03:27;;;;;;;;;;;;;;;20.36;60.29;99519.84;3155637;28;20057;-75
2023/08/08 04:04:58;;;;;;;;;;;;;;;20.30;60.65;99520.38;3145728;28;20282;-75
2023/08/08 04:06:29;;;;;;;;;;;;;;;20.29;60.54;99521.34;3146963;28;19941;-76
2023/08/08 04:08:00;;;;;;;;;;;;;;;20.27;60.56;99526.78;3157119;28;19923;-76
2023/08/08 04:09:32;;;;;;;;;;;;;;;20.20;60.81;99534.44;3157645;28;19920;-76
2023/08/08 04:11:03;;;;;;;;;;;;;;;20.16;60.81;99527.72;3157804;28;19926;-76
2023/08/08 04:12:35;;;;;;;;;;;;;;;20.13;60.78;99535.09;3159500;28;20309;-76
2023/08/08 04:14:07;;;;;;;;;;;;;;;20.09;60.94;99541.66;3159610;28;20033;-75
2023/08/08 04:15:37;;;;;;;;;;;;;;;20.04;61.15;99546.50;3158951;28;19919;-75
2023/08/08 04:17:09;;;;;;;;;;;;;;;20.03;61.58;99550.13;3155671;28;19931;-77
2023/08/08 04:18:40;;;;;;;;;;;;;;;19.96;62.32;99548.00;3156929;28;19928;-75
2023/08/08 04:20:12;;;;;;;;;;;;;;;19.89;63.71;99548.69;3153434;28;19920;-74
2023/08/08 04:21:42;;;;;;;;;;;;;;;19.81;64.52;99548.53;3159806;28;19955;-77
2023/08/08 04:23:14;;;;;;;;;;;;;;;19.74;65.10;99554.34;3159585;28;19924;-78
2023/08/08 04:24:44;;;;;;;;;;;;;;;19.70;65.75;99567.94;3159547;28;20405;-78
2023/08/08 04:26:16;;;;;;;;;;;;;;;19.62;66.61;99559.84;3159058;28;19982;-78
2023/08/08 04:27:48;;;;;;;;;;;;;;;19.59;66.97;99570.66;3159606;28;19931;-79
2023/08/08 04:29:19;;;;;;;;;;;;;;;19.52;67.67;99573.84;3158911;28;20341;-78
2023/08/08 04:30:50;;;;;;;;;;;;;;;19.49;67.88;99578.53;3158681;28;20242;-78
2023/08/08 04:32:21;;;;;;;;;;;;;;;19.43;68.33;99564.06;3158898;28;19926;-76
2023/08/08 04:33:55;;;;;;;;;;;;;;;19.39;69.29;99561.81;3154857;28;20466;-79
2023/08/08 04:35:27;;;;;;;;;;;;;;;19.32;69.67;99564.16;3157296;28;19920;-76
2023/08/08 04:36:57;;;;;;;;;;;;;;;19.26;70.09;99559.41;3159678;28;19923;-72
2023/08/08 04:38:29;;;;;;;;;;;;;;;19.22;70.20;99560.59;3159376;28;19990;-76
2023/08/08 04:40:00;;;;;;;;;;;;;;;19.21;70.37;99562.41;3159540;28;19933;-76
2023/08/08 04:41:31;;;;;;;;;;;;;;;19.19;70.41;99563.50;3159486;28;19920;-75
2023/08/08 04:43:04;;;;;;;;;;;;;;;19.18;70.49;99552.13;3157034;28;19931;-76
2023/08/08 04:44:35;;;;;;;;;;;;;;;19.20;70.48;99562.56;3150318;28;19982;-80
2023/08/08 04:46:06;;;;;;;;;;;;;;;19.20;70.79;99558.09;3149325;28;20344;-78
2023/08/08 04:47:37;;;;;;;;;;;;;;;19.19;70.99;99568.78;3146652;28;19920;-75
2023/08/08 04:49:08;;;;;;;;;;;;;;;19.17;70.99;99578.66;3152456;28;19924;-78
2023/08/08 04:50:40;;;;;;;;;;;;;;;19.17;71.30;99576.84;3155499;28;19942;-79
2023/08/08 04:52:18;;;;;;;;;;;;;;;19.14;71.50;99579.75;3158856;28;19977;-78
2023/08/08 04:53:48;;;;;;;;;;;;;;;19.09;71.73;99587.22;3156494;28;20081;-77
2023/08/08 04:55:20;;;;;;;;;;;;;;;19.05;71.91;99594.56;3154356;28;20010;-74
2023/08/08 04:56:50;;;;;;;;;;;;;;;19.05;71.83;99605.09;3158889;28;20014;-73
2023/08/08 04:58:23;;;;;;;;;;;;;;;19.00;71.82;99609.94;3156699;28;19927;-74
2023/08/08 04:59:54;;;;;;;;;;;;;;;18.96;72.23;99615.56;3158573;28;20628;-73
2023/08/08 05:01:30;;;;;;;;;;;;;;;18.94;72.37;99604.31;3149797;28;19924;-74
2023/08/08 05:03:08;;;;;;;;;;;;;;;18.89;72.77;99612.59;3147052;28;19999;-78
2023/08/08 05:04:40;;;;;;;;;;;;;;;18.82;73.01;99620.19;3154554;28;20304;-77
2023/08/08 05:06:10;;;;;;;;;;;;;;;18.78;73.01;99616.16;3158530;28;19928;-77
2023/08/08 05:07:42;;;;;;;;;;;;;;;18.79;72.88;99619.63;3158708;28;20118;-77
2023/08/08 05:09:14;;;;;;;;;;;;;;;18.78;73.04;99629.34;3158518;28;20462;-77
2023/08/08 05:10:44;;;;;;;;;;;;;;;18.71;73.53;99624.66;3157098;28;19920;-85
2023/08/08 05:12:16;;;;;;;;;;;;;;;18.68;73.78;99638.09;3141767;28;19928;-72
2023/08/08 05:13:49;;;;;;;;;;;;;;;18.65;73.75;99634.72;3158552;28;19927;-73
2023/08/08 05:15:20;;;;;;;;;;;;;;;18.67;73.74;99637.25;3149680;28;19924;-72
2023/08/08 05:16:52;;;;;;;;;;;;;;;18.70;73.36;99639.66;3158474;28;19924;-73
2023/08/08 05:18:22;;;;;;;;;;;;;;;18.73;72.96;99647.34;3153148;28;19924;-72
2023/08/08 05:19:54;;;;;;;;;;;;;;;18.77;72.81;99658.47;3158610;28;20022;-73
2023/08/08 05:21:25;;;;;;;;;;;;;;;18.75;73.08;99657.75;3158480;28;19998;-72
2023/08/08 05:22:56;;;;;;;;;;;;;;;18.74;72.98;99664.84;3158011;28;19931;-73
2023/08/08 05:24:27;;;;;;;;;;;;;;;18.79;72.68;99661.84;3158382;28;19981;-73
2023/08/08 05:25:59;;;;;;;;;;;;;;;18.82;72.55;99667.69;3157960;28;20503;-76
2023/08/08 05:27:30;;;;;;;;;;;;;;;18.86;72.06;99674.38;3158745;28;19924;-75
2023/08/08 05:29:03;;;;;;;;;;;;;;;18.87;72.04;99680.50;3158878;28;20073;-74
2023/08/08 05:30:35;;;;;;;;;;;;;;;18.90;72.00;99675.00;3148858;28;20382;-74
2023/08/08 05:32:06;;;;;;;;;;;;;;;18.91;71.88;99678.47;3156706;28;19932;-76
2023/08/08 05:33:38;;;;;;;;;;;;;;;18.92;71.95;99680.97;3155361;28;20396;-76
2023/08/08 05:35:09;;;;;;;;;;;;;;;18.90;72.28;99677.63;3154579;28;19920;-74
2023/08/08 05:36:41;;;;;;;;;;;;;;;18.83;72.60;99679.06;3158616;28;20484;-74
2023/08/08 05:38:11;;;;;;;;;;;;;;;18.83;72.61;99692.25;3158471;28;19920;-74
2023/08/08 05:39:43;;;;;;;;;;;;;;;18.82;72.55;99694.06;3158472;28;19939;-74
2023/08/08 05:41:15;;;;;;;;;;;;;;;18.81;72.85;99707.38;3158603;28;19924;-78
2023/08/08 05:42:46;;;;;;;;;;;;;;;18.80;72.69;99700.44;3158842;28;19920;-72
2023/08/08 05:44:19;;;;;;;;;;;;;;;18.80;72.70;99698.63;3150372;28;20316;-72
2023/08/08 05:45:50;;;;;;;;;;;;;;;18.78;72.65;99700.56;3147374;28;20410;-71
2023/08/08 05:47:21;;;;;;;;;;;;;;;18.77;72.60;99703.31;3146522;28;19933;-71
2023/08/08 05:48:53;;;;;;;;;;;;;;;18.70;72.92;99704.75;3155609;28;19927;-72
2023/08/08 05:50:26;;;;;;;;;;;;;;;18.65;73.25;99705.09;3155310;28;19978;-69
2023/08/08 05:51:58;;;;;;;;;;;;;;;18.60;73.18;99704.63;3158335;28;19923;-73
2023/08/08 05:53:28;;;;;;;;;;;;;;;18.52;73.60;99710.53;3158658;28;20030;-72
2023/08/08 05:55:00;;;;;;;;;;;;;;;18.46;73.54;99711.03;3146165;28;19925;-70
2023/08/08 05:56:37;;;;;;;;;;;;;;;18.44;73.49;99715.56;3158686;28;19952;-69
2023/08/08 05:58:08;;;;;;;;;;;;;;;18.44;73.63;99722.66;3154651;28;19921;-72
2023/08/08 05:59:40;;;;;;;;;;;;;;;18.38;74.02;99726.59;3155951;28;20210;-71
2023/08/08 06:01:12;;;;;;;;;;;;;;;18.33;74.03;99721.69;3145964;28;19943;-70
2023/08/08 06:02:43;;;;;;;;;;;;;;;18.32;73.84;99717.38;3155420;28;19930;-72
2023/08/08 06:04:15;;;;;;;;;;;;;;;18.33;73.85;99726.13;3151036;28;19920;-71
2023/08/08 06:05:46;;;;;;;;;;;;;;;18.29;74.27;99725.53;3153665;28;20022;-71
2023/08/08 06:07:17;;;;;;;;;;;;;;;18.23;74.21;99728.66;3158361;28;19935;-70
2023/08/08 06:08:48;;;;;;;;;;;;;;;18.15;74.43;99729.22;3158084;28;19985;-68
2023/08/08 06:10:20;;;;;;;;;;;;;;;18.12;74.69;99723.38;3158465;28;20404;-68
2023/08/08 06:11:50;;;;;;;;;;;;;;;18.08;74.65;99714.88;3158147;28;19966;-72
2023/08/08 06:13:22;;;;;;;;;;;;;;;18.03;74.81;99722.28;3158130;28;20312;-72
2023/08/08 06:14:55;;;;;;;;;;;;;;;18.01;74.89;99720.72;3153604;28;19931;-71
2023/08/08 06:16:26;;;;;;;;;;;;;;;17.99;75.03;99726.13;3157644;28;19945;-71
2023/08/08 06:17:57;;;;;;;;;;;;;;;17.98;74.71;99724.44;3158239;28;19924;-73
2023/08/08 06:19:36;;;;;;;;;;;;;;;18.01;74.85;99731.25;3149339;28;19931;-71
2023/08/08 06:21:07;;;;;;;;;;;;;;;18.01;74.87;99734.72;3157698;28;20373;-72
2023/08/08 06:22:39;;;;;;;;;;;;;;;18.00;74.92;99733.06;3158103;28;19995;-71
2023/08/08 06:24:11;;;;;;;;;;;;;;;17.98;74.95;99728.88;3158023;28;20005;-70
2023/08/08 06:25:43;;;;;;;;;;;;;;;18.02;74.55;99738.22;3157744;28;19971;-73
2023/08/08 06:27:15;;;;;;;;;;;;;;;18.00;74.57;99727.78;3157658;28;19920;-73
2023/08/08 06:28:46;;;;;;;;;;;;;;;18.00;74.92;99719.88;3156135;28;20261;-74
2023/08/08 06:30:23;;;;;;;;;;;;;;;18.03;74.42;99726.72;3137291;28;19927;-71
2023/08/08 06:31:54;;;;;;;;;;;;;;;18.08;74.31;99732.47;3148730;28;19923;-71
2023/08/08 06:33:34;;;;;;;;;;;;;;;18.09;74.21;99727.06;3156766;28;19920;-71
2023/08/08 06:35:23;;;;;;;;;;;;;;;18.10;74.39;99720.00;3147767;28;19924;-71
2023/08/08 06:39:45;;;;;;;;;;;;;;;18.18;74.02;99722.88;3090326;28;20015;-69
2023/08/08 06:43:51;;;;;;;;;;;;;;;18.30;73.45;99724.56;3030755;29;20433;-70
2023/08/08 06:48:46;;;;;;;;;;;;;;;;;;;;;
2023/08/08 06:52:42;;;;;;;;;;;;;;;18.59;72.36;99718.78;3014293;29;19980;-67
2023/08/08 06:54:21;;;;;;;;;;;;;;;18.62;71.98;99719.38;3038111;29;19934;-68
2023/08/08 06:56:08;;;;;;;;;;;;;;;18.68;71.78;99715.41;3055296;29;20018;-68
2023/08/08 07:02:01;;;;;;;;;;;;;;;19.00;70.83;99728.69;3088770;28;19930;-68
2023/08/08 07:03:32;;;;;;;;;;;;;;;19.08;70.57;99722.78;3103462;28;19921;-68
2023/08/08 07:05:04;;;;;;;;;;;;;;;19.17;70.43;99724.66;3131654;28;19924;-68
2023/08/08 07:06:38;;;;;;;;;;;;;;;19.24;70.13;99725.81;3157378;28;19977;-68
2023/08/08 07:08:11;;;;;;;;;;;;;;;19.29;70.23;99717.53;3158054;28;19931;-66
2023/08/08 07:09:42;;;;;;;;;;;;;;;19.30;70.42;99720.03;3156972;28;19993;-66
2023/08/08 07:11:14;;;;;;;;;;;;;;;19.30;70.39;99720.03;3157438;28;19924;-67
2023/08/08 07:12:45;;;;;;;;;;;;;;;19.33;70.16;99714.50;3157491;28;19924;-67
2023/08/08 07:14:16;;;;;;;;;;;;;;;19.38;70.05;99715.94;3152619;28;20011;-67
2023/08/08 07:18:21;;;;;;;;;;;;;;;19.46;69.84;99719.63;3137436;28;19974;-67
2023/08/08 07:20:02;;;;;;;;;;;;;;;19.54;69.51;99718.97;3128523;28;19927;-67
2023/08/08 07:21:57;;;;;;;;;;;;;;;19.62;69.37;99724.44;3127732;28;20045;-69
2023/08/08 07:23:30;;;;;;;;;;;;;;;19.71;69.17;99718.41;3125761;28;20337;-69
2023/08/08 07:25:02;;;;;;;;;;;;;;;19.82;68.86;99728.09;3145074;28;19931;-68
2023/08/08 07:26:35;;;;;;;;;;;;;;;19.87;68.64;99730.31;3145084;28;19924;-67
2023/08/08 07:28:05;;;;;;;;;;;;;;;19.82;68.37;99736.00;3144854;28;19928;-68
2023/08/08 07:29:38;;;;;;;;;;;;;;;19.81;68.21;99738.78;3124372;28;19927;-67
2023/08/08 07:31:10;;;;;;;;;;;;;;;19.80;68.17;99737.09;3144293;28;20328;-68
2023/08/08 07:32:40;;;;;;;;;;;;;;;19.78;67.92;99738.06;3144830;28;20054;-72
2023/08/08 07:34:12;;;;;;;;;;;;;;;19.76;67.84;99737.38;3142176;28;20050;-69
2023/08/08 07:35:47;;;;;;;;;;;;;;;19.77;67.68;99736.38;3144928;28;19928;-69
2023/08/08 07:37:18;;;;;;;;;;;;;;;19.81;67.50;99739.59;3144534;28;20495;-67
2023/08/08 07:38:51;;;;;;;;;;;;;;;19.85;67.29;99734.94;3144358;28;19920;-68
2023/08/08 07:40:22;;;;;;;;;;;;;;;19.90;66.96;99738.00;3144504;28;19927;-72
2023/08/08 07:41:54;;;;;;;;;;;;;;;19.93;67.07;99735.91;3145023;28;19928;-69
2023/08/08 07:43:24;;;;;;;;;;;;;;;19.98;66.85;99731.09;3137044;28;20464;-70
2023/08/08 07:44:56;;;;;;;;;;;;;;;20.03;66.76;99736.00;3136477;28;19924;-69
2023/08/08 07:46:27;;;;;;;;;;;;;;;20.10;66.53;99734.47;3133878;28;19928;-70
2023/08/08 07:47:59;;;;;;;;;;;;;;;20.16;66.25;99736.59;3147471;28;20433;-70
2023/08/08 07:49:44;;;;;;;;;;;;;;;20.18;66.20;99741.78;3133888;28;20025;-69
2023/08/08 07:51:18;;;;;;;;;;;;;;;20.20;65.95;99742.44;3130887;28;19920;-69
2023/08/08 07:52:50;;;;;;;;;;;;;;;20.19;65.60;99748.72;3143363;28;19964;-68
2023/08/08 07:54:22;;;;;;;;;;;;;;;20.17;65.57;99750.66;3133970;28;19928;-69
2023/08/08 08:00:34;;;;;;;;;;;;;;;20.13;65.03;99746.59;3093608;28;20536;-66
2023/08/08 08:02:10;;;;;;;;;;;;;;;20.13;64.90;99750.09;3131451;28;20010;-65
2023/08/08 08:03:51;;;;;;;;;;;;;;;20.14;64.73;99757.06;3141292;28;19931;-66
2023/08/08 08:05:25;;;;;;;;;;;;;;;20.12;64.76;99750.22;3134489;28;19982;-68
2023/08/08 08:06:57;;;;;;;;;;;;;;;20.12;64.51;99751.06;3142861;28;20525;-66
2023/08/08 08:08:28;;;;;;;;;;;;;;;20.12;64.49;99753.69;3147175;28;19924;-66
2023/08/08 08:10:01;;;;;;;;;;;;;;;20.12;64.68;99753.69;3146824;28;19924;-66
2023/08/08 08:11:32;;;;;;;;;;;;;;;20.16;64.45;99755.09;3146656;28;20010;-66
2023/08/08 08:13:07;;;;;;;;;;;;;;;20.20;64.59;99751.25;3146913;28;19924;-66
2023/08/08 08:14:42;;;;;;;;;;;;;;;20.24;64.40;99751.81;3140988;28;20324;-67
2023/08/08 08:16:13;;;;;;;;;;;;;;;20.29;64.16;99754.91;3144763;28;19997;-66
2023/08/08 08:17:44;;;;;;;;;;;;;;;20.34;64.09;99749.19;3147063;28;19926;-67
2023/08/08 08:19:16;;;;;;;;;;;;;;;20.36;63.76;99748.09;3132020;28;19943;-68
2023/08/08 08:20:47;;;;;;;;;;;;;;;20.36;63.23;99748.09;3138297;28;20043;-67
2023/08/08 08:22:35;;;;;;;;;;;;;;;20.39;63.15;99747.00;3145693;28;19935;-66